sensor_id;sensor_type;location;lat;lon;timestamp;P1;durP1;ratioP1;P2;durP2;ratioP2
1829;SDS011;914;48.118;11.600;2023-04-25T00:01:22;2.60;;;1.57;;
1829;SDS011;914;48.118;11.600;2023-04-25T00:03:48;3.40;;;1.47;;
1829;SDS011;914;48.118;11.600;2023-04-25T00:06:14;1.90;;;1.60;;
1829;SDS011;914;48.118;11.600;2023-04-25T00:08:40;1.60;;;1.50;;
1829;SDS011;914;48.118;11.600;2023-04-25T00:11:05;2.43;;;1.83;;
1829;SDS011;914;48.118;11.600;2023-04-25T00:13:31;1.87;;;1.50;;
1829;SDS011;914;48.118;11.600;2023-04-25T00:15:57;1.93;;;1.80;;
1829;SDS011;914;48.118;11.600;2023-04-25T00:18:23;6.77;;;2.00;;
1829;SDS011;914;48.118;11.600;2023-04-25T00:20:49;2.90;;;2.03;;
1829;SDS011;914;48.118;11.600;2023-04-25T00:23:16;1.60;;;1.50;;
1829;SDS011;914;48.118;11.600;2023-04-25T00:25:45;1.50;;;1.40;;
1829;SDS011;914;48.118;11.600;2023-04-25T00:28:12;1.57;;;1.47;;
1829;SDS011;914;48.118;11.600;2023-04-25T00:30:38;2.63;;;1.50;;
1829;SDS011;914;48.118;11.600;2023-04-25T00:33:04;3.30;;;1.50;;
1829;SDS011;914;48.118;11.600;2023-04-25T00:35:30;1.97;;;1.40;;
1829;SDS011;914;48.118;11.600;2023-04-25T00:37:56;2.70;;;1.70;;
1829;SDS011;914;48.118;11.600;2023-04-25T00:40:22;1.80;;;1.50;;
1829;SDS011;914;48.118;11.600;2023-04-25T00:42:48;1.50;;;1.40;;
1829;SDS011;914;48.118;11.600;2023-04-25T00:45:16;3.30;;;1.70;;
1829;SDS011;914;48.118;11.600;2023-04-25T00:47:42;2.67;;;1.63;;
1829;SDS011;914;48.118;11.600;2023-04-25T00:50:09;1.73;;;1.40;;
1829;SDS011;914;48.118;11.600;2023-04-25T00:52:35;2.20;;;1.70;;
1829;SDS011;914;48.118;11.600;2023-04-25T00:55:02;2.90;;;1.60;;
1829;SDS011;914;48.118;11.600;2023-04-25T00:57:28;1.73;;;1.50;;
1829;SDS011;914;48.118;11.600;2023-04-25T00:59:54;2.40;;;1.70;;
1829;SDS011;914;48.118;11.600;2023-04-25T01:02:20;2.47;;;1.40;;
1829;SDS011;914;48.118;11.600;2023-04-25T01:04:47;1.97;;;1.57;;
1829;SDS011;914;48.118;11.600;2023-04-25T01:07:13;2.07;;;1.60;;
1829;SDS011;914;48.118;11.600;2023-04-25T01:09:40;2.07;;;1.50;;
1829;SDS011;914;48.118;11.600;2023-04-25T01:12:06;1.87;;;1.50;;
1829;SDS011;914;48.118;11.600;2023-04-25T01:14:32;1.77;;;1.60;;
1829;SDS011;914;48.118;11.600;2023-04-25T01:16:58;2.03;;;1.50;;
1829;SDS011;914;48.118;11.600;2023-04-25T01:19:24;2.40;;;1.60;;
1829;SDS011;914;48.118;11.600;2023-04-25T01:21:50;1.60;;;1.50;;
1829;SDS011;914;48.118;11.600;2023-04-25T01:24:16;1.97;;;1.57;;
1829;SDS011;914;48.118;11.600;2023-04-25T01:26:42;2.60;;;1.90;;
1829;SDS011;914;48.118;11.600;2023-04-25T01:29:18;3.13;;;1.53;;
1829;SDS011;914;48.118;11.600;2023-04-25T01:31:44;2.27;;;1.57;;
1829;SDS011;914;48.118;11.600;2023-04-25T01:34:11;1.30;;;1.30;;
1829;SDS011;914;48.118;11.600;2023-04-25T01:36:37;2.00;;;1.70;;
1829;SDS011;914;48.118;11.600;2023-04-25T01:39:03;1.60;;;1.50;;
1829;SDS011;914;48.118;11.600;2023-04-25T01:41:29;1.80;;;1.70;;
1829;SDS011;914;48.118;11.600;2023-04-25T01:43:55;3.50;;;1.80;;
1829;SDS011;914;48.118;11.600;2023-04-25T01:46:21;2.60;;;2.00;;
1829;SDS011;914;48.118;11.600;2023-04-25T01:48:47;1.73;;;1.63;;
1829;SDS011;914;48.118;11.600;2023-04-25T01:51:13;1.67;;;1.50;;
1829;SDS011;914;48.118;11.600;2023-04-25T01:53:38;1.57;;;1.47;;
1829;SDS011;914;48.118;11.600;2023-04-25T01:56:05;2.00;;;1.67;;
1829;SDS011;914;48.118;11.600;2023-04-25T01:58:31;2.93;;;1.70;;
1829;SDS011;914;48.118;11.600;2023-04-25T02:00:56;2.53;;;1.83;;
1829;SDS011;914;48.118;11.600;2023-04-25T02:03:22;2.00;;;1.77;;
1829;SDS011;914;48.118;11.600;2023-04-25T02:05:48;1.93;;;1.50;;
1829;SDS011;914;48.118;11.600;2023-04-25T02:08:13;3.40;;;1.80;;
1829;SDS011;914;48.118;11.600;2023-04-25T02:10:39;2.00;;;1.80;;
1829;SDS011;914;48.118;11.600;2023-04-25T02:13:05;2.30;;;1.67;;
1829;SDS011;914;48.118;11.600;2023-04-25T02:15:31;1.77;;;1.63;;
1829;SDS011;914;48.118;11.600;2023-04-25T02:17:56;1.73;;;1.63;;
1829;SDS011;914;48.118;11.600;2023-04-25T02:20:23;2.30;;;1.83;;
1829;SDS011;914;48.118;11.600;2023-04-25T02:22:49;4.07;;;2.10;;
1829;SDS011;914;48.118;11.600;2023-04-25T02:25:16;1.63;;;1.47;;
1829;SDS011;914;48.118;11.600;2023-04-25T02:27:43;1.70;;;1.60;;
1829;SDS011;914;48.118;11.600;2023-04-25T02:30:08;1.67;;;1.57;;
1829;SDS011;914;48.118;11.600;2023-04-25T02:32:34;1.93;;;1.60;;
1829;SDS011;914;48.118;11.600;2023-04-25T02:35:00;2.13;;;1.73;;
1829;SDS011;914;48.118;11.600;2023-04-25T02:37:32;2.83;;;1.80;;
1829;SDS011;914;48.118;11.600;2023-04-25T02:40:00;2.43;;;1.80;;
1829;SDS011;914;48.118;11.600;2023-04-25T02:42:26;2.97;;;1.70;;
1829;SDS011;914;48.118;11.600;2023-04-25T02:44:52;1.80;;;1.70;;
1829;SDS011;914;48.118;11.600;2023-04-25T02:47:18;2.20;;;1.73;;
1829;SDS011;914;48.118;11.600;2023-04-25T02:49:43;2.83;;;1.80;;
1829;SDS011;914;48.118;11.600;2023-04-25T02:52:11;3.43;;;2.20;;
1829;SDS011;914;48.118;11.600;2023-04-25T02:54:40;2.13;;;1.93;;
1829;SDS011;914;48.118;11.600;2023-04-25T02:57:06;3.53;;;2.10;;
1829;SDS011;914;48.118;11.600;2023-04-25T02:59:32;3.17;;;1.80;;
1829;SDS011;914;48.118;11.600;2023-04-25T03:01:58;3.20;;;2.13;;
1829;SDS011;914;48.118;11.600;2023-04-25T03:04:24;2.43;;;1.77;;
1829;SDS011;914;48.118;11.600;2023-04-25T03:06:50;1.80;;;1.43;;
1829;SDS011;914;48.118;11.600;2023-04-25T03:09:16;2.70;;;1.87;;
1829;SDS011;914;48.118;11.600;2023-04-25T03:11:44;1.70;;;1.60;;
1829;SDS011;914;48.118;11.600;2023-04-25T03:14:10;2.00;;;1.80;;
1829;SDS011;914;48.118;11.600;2023-04-25T03:16:36;7.90;;;1.90;;
1829;SDS011;914;48.118;11.600;2023-04-25T03:19:02;1.93;;;1.73;;
1829;SDS011;914;48.118;11.600;2023-04-25T03:21:28;3.13;;;1.90;;
1829;SDS011;914;48.118;11.600;2023-04-25T03:23:56;2.50;;;2.13;;
1829;SDS011;914;48.118;11.600;2023-04-25T03:26:22;4.73;;;1.90;;
1829;SDS011;914;48.118;11.600;2023-04-25T03:28:48;3.00;;;1.97;;
1829;SDS011;914;48.118;11.600;2023-04-25T03:31:14;5.30;;;1.53;;
1829;SDS011;914;48.118;11.600;2023-04-25T03:33:40;3.97;;;2.10;;
1829;SDS011;914;48.118;11.600;2023-04-25T03:36:06;4.30;;;2.00;;
1829;SDS011;914;48.118;11.600;2023-04-25T03:38:32;4.73;;;1.70;;
1829;SDS011;914;48.118;11.600;2023-04-25T03:40:57;2.10;;;1.50;;
1829;SDS011;914;48.118;11.600;2023-04-25T03:43:23;2.00;;;1.50;;
1829;SDS011;914;48.118;11.600;2023-04-25T03:45:49;2.10;;;1.60;;
1829;SDS011;914;48.118;11.600;2023-04-25T03:48:15;3.63;;;1.70;;
1829;SDS011;914;48.118;11.600;2023-04-25T03:50:41;2.00;;;1.50;;
1829;SDS011;914;48.118;11.600;2023-04-25T03:53:06;5.07;;;1.83;;
1829;SDS011;914;48.118;11.600;2023-04-25T03:55:32;2.53;;;1.57;;
1829;SDS011;914;48.118;11.600;2023-04-25T03:57:58;3.20;;;1.30;;
1829;SDS011;914;48.118;11.600;2023-04-25T04:00:24;3.50;;;1.70;;
1829;SDS011;914;48.118;11.600;2023-04-25T04:02:50;1.43;;;1.33;;
1829;SDS011;914;48.118;11.600;2023-04-25T04:05:16;3.13;;;1.43;;
1829;SDS011;914;48.118;11.600;2023-04-25T04:07:41;2.07;;;1.43;;
1829;SDS011;914;48.118;11.600;2023-04-25T04:10:08;3.07;;;1.40;;
1829;SDS011;914;48.118;11.600;2023-04-25T04:12:35;1.37;;;1.27;;
1829;SDS011;914;48.118;11.600;2023-04-25T04:15:02;1.43;;;1.30;;
1829;SDS011;914;48.118;11.600;2023-04-25T04:17:29;1.97;;;1.30;;
1829;SDS011;914;48.118;11.600;2023-04-25T04:19:55;1.63;;;1.43;;
1829;SDS011;914;48.118;11.600;2023-04-25T04:22:21;2.50;;;1.50;;
1829;SDS011;914;48.118;11.600;2023-04-25T04:24:47;1.50;;;1.30;;
1829;SDS011;914;48.118;11.600;2023-04-25T04:27:15;3.23;;;1.50;;
1829;SDS011;914;48.118;11.600;2023-04-25T04:29:42;3.13;;;1.53;;
1829;SDS011;914;48.118;11.600;2023-04-25T04:32:08;3.67;;;1.47;;
1829;SDS011;914;48.118;11.600;2023-04-25T04:34:34;1.33;;;1.23;;
1829;SDS011;914;48.118;11.600;2023-04-25T04:37:00;1.73;;;1.30;;
1829;SDS011;914;48.118;11.600;2023-04-25T04:39:26;1.67;;;1.47;;
1829;SDS011;914;48.118;11.600;2023-04-25T04:41:51;2.77;;;1.90;;
1829;SDS011;914;48.118;11.600;2023-04-25T04:44:17;2.17;;;1.60;;
1829;SDS011;914;48.118;11.600;2023-04-25T04:46:43;2.47;;;1.60;;
1829;SDS011;914;48.118;11.600;2023-04-25T04:49:09;1.40;;;1.30;;
1829;SDS011;914;48.118;11.600;2023-04-25T04:51:36;2.93;;;1.40;;
1829;SDS011;914;48.118;11.600;2023-04-25T04:54:02;3.33;;;1.60;;
1829;SDS011;914;48.118;11.600;2023-04-25T04:56:29;2.67;;;1.60;;
1829;SDS011;914;48.118;11.600;2023-04-25T04:58:56;3.90;;;1.60;;
1829;SDS011;914;48.118;11.600;2023-04-25T05:01:22;1.63;;;1.40;;
1829;SDS011;914;48.118;11.600;2023-04-25T05:03:48;2.87;;;1.30;;
1829;SDS011;914;48.118;11.600;2023-04-25T05:06:14;1.77;;;1.57;;
1829;SDS011;914;48.118;11.600;2023-04-25T05:08:41;2.07;;;1.50;;
1829;SDS011;914;48.118;11.600;2023-04-25T05:11:07;3.37;;;1.73;;
1829;SDS011;914;48.118;11.600;2023-04-25T05:13:32;2.50;;;1.50;;
1829;SDS011;914;48.118;11.600;2023-04-25T05:15:58;3.17;;;1.63;;
1829;SDS011;914;48.118;11.600;2023-04-25T05:18:24;3.37;;;1.50;;
1829;SDS011;914;48.118;11.600;2023-04-25T05:20:50;1.87;;;1.60;;
1829;SDS011;914;48.118;11.600;2023-04-25T05:23:15;2.63;;;1.70;;
1829;SDS011;914;48.118;11.600;2023-04-25T05:25:41;5.10;;;1.70;;
1829;SDS011;914;48.118;11.600;2023-04-25T05:28:07;3.43;;;2.10;;
1829;SDS011;914;48.118;11.600;2023-04-25T05:30:33;3.13;;;1.90;;
1829;SDS011;914;48.118;11.600;2023-04-25T05:32:59;4.07;;;1.97;;
1829;SDS011;914;48.118;11.600;2023-04-25T05:35:28;7.03;;;1.90;;
1829;SDS011;914;48.118;11.600;2023-04-25T05:37:53;4.53;;;2.10;;
1829;SDS011;914;48.118;11.600;2023-04-25T05:40:19;2.43;;;1.90;;
1829;SDS011;914;48.118;11.600;2023-04-25T05:42:45;3.30;;;2.17;;
1829;SDS011;914;48.118;11.600;2023-04-25T05:45:11;4.03;;;2.10;;
1829;SDS011;914;48.118;11.600;2023-04-25T05:47:36;2.90;;;2.00;;
1829;SDS011;914;48.118;11.600;2023-04-25T05:50:02;3.23;;;1.93;;
1829;SDS011;914;48.118;11.600;2023-04-25T05:52:28;1.90;;;1.80;;
1829;SDS011;914;48.118;11.600;2023-04-25T05:54:55;4.53;;;1.90;;
1829;SDS011;914;48.118;11.600;2023-04-25T05:57:22;2.40;;;1.90;;
1829;SDS011;914;48.118;11.600;2023-04-25T05:59:49;4.23;;;2.23;;
1829;SDS011;914;48.118;11.600;2023-04-25T06:02:15;3.70;;;2.07;;
1829;SDS011;914;48.118;11.600;2023-04-25T06:04:41;4.87;;;2.10;;
1829;SDS011;914;48.118;11.600;2023-04-25T06:07:07;2.63;;;1.77;;
1829;SDS011;914;48.118;11.600;2023-04-25T06:09:33;2.10;;;1.50;;
1829;SDS011;914;48.118;11.600;2023-04-25T06:11:59;3.57;;;1.77;;
1829;SDS011;914;48.118;11.600;2023-04-25T06:14:26;4.33;;;1.70;;
1829;SDS011;914;48.118;11.600;2023-04-25T06:16:51;1.50;;;1.40;;
1829;SDS011;914;48.118;11.600;2023-04-25T06:19:17;2.40;;;1.70;;
1829;SDS011;914;48.118;11.600;2023-04-25T06:21:43;2.10;;;1.57;;
1829;SDS011;914;48.118;11.600;2023-04-25T06:24:09;2.07;;;1.90;;
1829;SDS011;914;48.118;11.600;2023-04-25T06:26:35;2.30;;;1.90;;
1829;SDS011;914;48.118;11.600;2023-04-25T06:29:00;2.17;;;1.90;;
1829;SDS011;914;48.118;11.600;2023-04-25T06:31:26;2.90;;;2.00;;
1829;SDS011;914;48.118;11.600;2023-04-25T06:33:53;4.47;;;2.50;;
1829;SDS011;914;48.118;11.600;2023-04-25T06:36:20;4.17;;;2.57;;
1829;SDS011;914;48.118;11.600;2023-04-25T06:38:53;3.20;;;2.67;;
1829;SDS011;914;48.118;11.600;2023-04-25T06:41:20;2.33;;;2.10;;
1829;SDS011;914;48.118;11.600;2023-04-25T06:43:45;4.67;;;2.70;;
1829;SDS011;914;48.118;11.600;2023-04-25T06:46:11;4.87;;;2.67;;
1829;SDS011;914;48.118;11.600;2023-04-25T06:48:37;4.50;;;2.20;;
1829;SDS011;914;48.118;11.600;2023-04-25T06:51:02;3.23;;;2.53;;
1829;SDS011;914;48.118;11.600;2023-04-25T06:53:28;2.47;;;1.93;;
1829;SDS011;914;48.118;11.600;2023-04-25T06:55:54;3.83;;;2.00;;
1829;SDS011;914;48.118;11.600;2023-04-25T06:58:19;5.30;;;2.63;;
1829;SDS011;914;48.118;11.600;2023-04-25T07:00:45;2.67;;;2.43;;
1829;SDS011;914;48.118;11.600;2023-04-25T07:03:11;7.77;;;2.70;;
1829;SDS011;914;48.118;11.600;2023-04-25T07:05:37;3.67;;;2.50;;
1829;SDS011;914;48.118;11.600;2023-04-25T07:08:02;5.13;;;2.43;;
1829;SDS011;914;48.118;11.600;2023-04-25T07:10:28;4.60;;;2.80;;
1829;SDS011;914;48.118;11.600;2023-04-25T07:12:54;3.33;;;2.57;;
1829;SDS011;914;48.118;11.600;2023-04-25T07:15:19;3.83;;;2.70;;
1829;SDS011;914;48.118;11.600;2023-04-25T07:17:45;3.00;;;2.40;;
1829;SDS011;914;48.118;11.600;2023-04-25T07:20:11;3.27;;;2.43;;
1829;SDS011;914;48.118;11.600;2023-04-25T07:22:37;3.87;;;2.53;;
1829;SDS011;914;48.118;11.600;2023-04-25T07:25:02;2.97;;;2.07;;
1829;SDS011;914;48.118;11.600;2023-04-25T07:27:29;7.07;;;2.53;;
1829;SDS011;914;48.118;11.600;2023-04-25T07:29:55;3.47;;;2.10;;
1829;SDS011;914;48.118;11.600;2023-04-25T07:32:21;3.93;;;2.40;;
1829;SDS011;914;48.118;11.600;2023-04-25T07:34:46;2.57;;;2.27;;
1829;SDS011;914;48.118;11.600;2023-04-25T07:37:12;5.50;;;2.63;;
1829;SDS011;914;48.118;11.600;2023-04-25T07:39:39;3.77;;;2.60;;
1829;SDS011;914;48.118;11.600;2023-04-25T07:42:05;3.83;;;2.40;;
1829;SDS011;914;48.118;11.600;2023-04-25T07:44:33;3.93;;;2.20;;
1829;SDS011;914;48.118;11.600;2023-04-25T07:47:06;3.57;;;2.30;;
1829;SDS011;914;48.118;11.600;2023-04-25T07:49:35;4.77;;;2.30;;
1829;SDS011;914;48.118;11.600;2023-04-25T07:52:02;2.30;;;2.10;;
1829;SDS011;914;48.118;11.600;2023-04-25T07:54:30;2.50;;;2.27;;
1829;SDS011;914;48.118;11.600;2023-04-25T07:56:56;6.93;;;2.67;;
1829;SDS011;914;48.118;11.600;2023-04-25T07:59:22;11.10;;;2.77;;
1829;SDS011;914;48.118;11.600;2023-04-25T08:01:47;3.03;;;2.40;;
1829;SDS011;914;48.118;11.600;2023-04-25T08:04:13;3.97;;;2.30;;
1829;SDS011;914;48.118;11.600;2023-04-25T08:06:39;3.43;;;2.23;;
1829;SDS011;914;48.118;11.600;2023-04-25T08:09:05;4.27;;;2.70;;
1829;SDS011;914;48.118;11.600;2023-04-25T08:11:31;4.83;;;2.47;;
1829;SDS011;914;48.118;11.600;2023-04-25T08:13:57;3.63;;;2.47;;
1829;SDS011;914;48.118;11.600;2023-04-25T08:16:22;3.77;;;2.20;;
1829;SDS011;914;48.118;11.600;2023-04-25T08:18:49;4.17;;;2.57;;
1829;SDS011;914;48.118;11.600;2023-04-25T08:21:15;3.33;;;2.50;;
1829;SDS011;914;48.118;11.600;2023-04-25T08:23:41;7.97;;;2.40;;
1829;SDS011;914;48.118;11.600;2023-04-25T08:26:06;4.67;;;2.00;;
1829;SDS011;914;48.118;11.600;2023-04-25T08:28:32;4.67;;;2.20;;
1829;SDS011;914;48.118;11.600;2023-04-25T08:30:57;2.67;;;2.10;;
1829;SDS011;914;48.118;11.600;2023-04-25T08:33:23;3.70;;;2.10;;
1829;SDS011;914;48.118;11.600;2023-04-25T08:35:49;2.77;;;2.10;;
1829;SDS011;914;48.118;11.600;2023-04-25T08:38:15;2.67;;;2.00;;
1829;SDS011;914;48.118;11.600;2023-04-25T08:40:42;2.80;;;2.13;;
1829;SDS011;914;48.118;11.600;2023-04-25T08:43:09;4.17;;;1.90;;
1829;SDS011;914;48.118;11.600;2023-04-25T08:45:38;2.67;;;2.00;;
1829;SDS011;914;48.118;11.600;2023-04-25T08:48:11;3.70;;;2.23;;
1829;SDS011;914;48.118;11.600;2023-04-25T08:50:56;2.30;;;2.10;;
1829;SDS011;914;48.118;11.600;2023-04-25T08:53:27;2.93;;;1.93;;
1829;SDS011;914;48.118;11.600;2023-04-25T08:55:55;5.73;;;2.23;;
1829;SDS011;914;48.118;11.600;2023-04-25T08:58:21;2.03;;;1.70;;
1829;SDS011;914;48.118;11.600;2023-04-25T09:00:48;3.70;;;1.67;;
1829;SDS011;914;48.118;11.600;2023-04-25T09:03:15;2.77;;;1.70;;
1829;SDS011;914;48.118;11.600;2023-04-25T09:05:41;1.20;;;1.20;;
1829;SDS011;914;48.118;11.600;2023-04-25T09:08:07;2.87;;;1.40;;
1829;SDS011;914;48.118;11.600;2023-04-25T09:10:33;4.00;;;1.43;;
1829;SDS011;914;48.118;11.600;2023-04-25T09:13:03;1.80;;;1.10;;
1829;SDS011;914;48.118;11.600;2023-04-25T09:15:30;1.73;;;1.23;;
1829;SDS011;914;48.118;11.600;2023-04-25T09:17:57;2.00;;;1.10;;
1829;SDS011;914;48.118;11.600;2023-04-25T09:20:23;2.23;;;1.40;;
1829;SDS011;914;48.118;11.600;2023-04-25T09:22:49;2.00;;;1.30;;
1829;SDS011;914;48.118;11.600;2023-04-25T09:25:34;1.67;;;1.30;;
1829;SDS011;914;48.118;11.600;2023-04-25T09:28:04;1.67;;;1.30;;
1829;SDS011;914;48.118;11.600;2023-04-25T09:30:31;3.10;;;1.50;;
1829;SDS011;914;48.118;11.600;2023-04-25T09:33:04;3.37;;;1.60;;
1829;SDS011;914;48.118;11.600;2023-04-25T09:35:34;1.73;;;1.13;;
1829;SDS011;914;48.118;11.600;2023-04-25T09:38:05;2.00;;;1.23;;
1829;SDS011;914;48.118;11.600;2023-04-25T09:40:33;6.60;;;1.53;;
1829;SDS011;914;48.118;11.600;2023-04-25T09:42:58;10.73;;;2.40;;
1829;SDS011;914;48.118;11.600;2023-04-25T09:45:24;1.73;;;1.40;;
1829;SDS011;914;48.118;11.600;2023-04-25T09:47:49;1.90;;;1.40;;
1829;SDS011;914;48.118;11.600;2023-04-25T09:50:20;1.63;;;1.30;;
1829;SDS011;914;48.118;11.600;2023-04-25T09:53:02;3.13;;;1.50;;
1829;SDS011;914;48.118;11.600;2023-04-25T09:55:34;3.07;;;1.73;;
1829;SDS011;914;48.118;11.600;2023-04-25T09:58:03;1.70;;;1.47;;
1829;SDS011;914;48.118;11.600;2023-04-25T10:00:32;2.87;;;1.37;;
1829;SDS011;914;48.118;11.600;2023-04-25T10:03:01;2.20;;;1.33;;
1829;SDS011;914;48.118;11.600;2023-04-25T10:05:29;2.23;;;1.40;;
1829;SDS011;914;48.118;11.600;2023-04-25T10:07:58;1.30;;;1.20;;
1829;SDS011;914;48.118;11.600;2023-04-25T10:10:28;2.67;;;1.40;;
1829;SDS011;914;48.118;11.600;2023-04-25T10:12:57;2.70;;;1.50;;
1829;SDS011;914;48.118;11.600;2023-04-25T10:15:24;3.63;;;1.77;;
1829;SDS011;914;48.118;11.600;2023-04-25T10:17:50;4.00;;;1.27;;
1829;SDS011;914;48.118;11.600;2023-04-25T10:20:16;4.30;;;1.57;;
1829;SDS011;914;48.118;11.600;2023-04-25T10:22:44;4.20;;;1.70;;
1829;SDS011;914;48.118;11.600;2023-04-25T10:25:11;1.47;;;1.30;;
1829;SDS011;914;48.118;11.600;2023-04-25T10:27:38;4.30;;;1.63;;
1829;SDS011;914;48.118;11.600;2023-04-25T10:30:05;3.67;;;1.40;;
1829;SDS011;914;48.118;11.600;2023-04-25T10:32:36;2.43;;;1.40;;
1829;SDS011;914;48.118;11.600;2023-04-25T10:35:15;1.60;;;1.40;;
1829;SDS011;914;48.118;11.600;2023-04-25T10:38:05;1.13;;;1.10;;
1829;SDS011;914;48.118;11.600;2023-04-25T10:40:34;1.90;;;1.43;;
1829;SDS011;914;48.118;11.600;2023-04-25T10:48:49;2.87;;;1.73;;
1829;SDS011;914;48.118;11.600;2023-04-25T10:51:17;3.37;;;1.80;;
1829;SDS011;914;48.118;11.600;2023-04-25T10:53:57;2.10;;;1.87;;
1829;SDS011;914;48.118;11.600;2023-04-25T10:56:28;2.33;;;1.80;;
1829;SDS011;914;48.118;11.600;2023-04-25T10:59:05;2.67;;;1.50;;
1829;SDS011;914;48.118;11.600;2023-04-25T11:01:39;2.10;;;1.50;;
1829;SDS011;914;48.118;11.600;2023-04-25T11:04:18;2.83;;;1.60;;
1829;SDS011;914;48.118;11.600;2023-04-25T11:09:17;4.47;;;2.07;;
1829;SDS011;914;48.118;11.600;2023-04-25T11:11:43;1.93;;;1.80;;
1829;SDS011;914;48.118;11.600;2023-04-25T11:14:19;2.57;;;1.70;;
1829;SDS011;914;48.118;11.600;2023-04-25T11:16:45;3.73;;;1.90;;
1829;SDS011;914;48.118;11.600;2023-04-25T11:19:11;2.77;;;1.33;;
1829;SDS011;914;48.118;11.600;2023-04-25T11:21:36;1.90;;;1.50;;
1829;SDS011;914;48.118;11.600;2023-04-25T11:24:02;1.40;;;1.30;;
1829;SDS011;914;48.118;11.600;2023-04-25T11:26:29;1.90;;;1.30;;
1829;SDS011;914;48.118;11.600;2023-04-25T11:28:58;1.33;;;1.23;;
1829;SDS011;914;48.118;11.600;2023-04-25T11:31:28;1.87;;;1.50;;
1829;SDS011;914;48.118;11.600;2023-04-25T11:33:56;2.67;;;1.43;;
1829;SDS011;914;48.118;11.600;2023-04-25T11:36:23;3.80;;;1.20;;
1829;SDS011;914;48.118;11.600;2023-04-25T11:38:50;1.17;;;1.10;;
1829;SDS011;914;48.118;11.600;2023-04-25T11:41:17;1.43;;;1.10;;
1829;SDS011;914;48.118;11.600;2023-04-25T11:43:47;2.00;;;1.20;;
1829;SDS011;914;48.118;11.600;2023-04-25T11:46:13;1.27;;;1.17;;
1829;SDS011;914;48.118;11.600;2023-04-25T11:48:42;2.67;;;1.40;;
1829;SDS011;914;48.118;11.600;2023-04-25T11:51:11;2.97;;;1.70;;
1829;SDS011;914;48.118;11.600;2023-04-25T11:53:36;2.77;;;1.80;;
1829;SDS011;914;48.118;11.600;2023-04-25T11:56:10;2.10;;;1.63;;
1829;SDS011;914;48.118;11.600;2023-04-25T12:01:26;2.27;;;1.60;;
1829;SDS011;914;48.118;11.600;2023-04-25T12:04:09;1.53;;;1.43;;
1829;SDS011;914;48.118;11.600;2023-04-25T12:06:43;1.30;;;1.20;;
1829;SDS011;914;48.118;11.600;2023-04-25T12:09:11;1.77;;;1.27;;
1829;SDS011;914;48.118;11.600;2023-04-25T12:11:47;1.50;;;1.40;;
1829;SDS011;914;48.118;11.600;2023-04-25T12:14:21;1.23;;;1.13;;
1829;SDS011;914;48.118;11.600;2023-04-25T12:16:52;2.47;;;1.20;;
1829;SDS011;914;48.118;11.600;2023-04-25T12:19:20;0.97;;;0.90;;
1829;SDS011;914;48.118;11.600;2023-04-25T12:21:46;5.27;;;1.30;;
1829;SDS011;914;48.118;11.600;2023-04-25T12:24:17;1.20;;;1.10;;
1829;SDS011;914;48.118;11.600;2023-04-25T12:29:17;2.10;;;1.30;;
1829;SDS011;914;48.118;11.600;2023-04-25T12:31:48;2.20;;;1.10;;
1829;SDS011;914;48.118;11.600;2023-04-25T12:34:15;0.97;;;0.97;;
1829;SDS011;914;48.118;11.600;2023-04-25T12:36:41;1.03;;;0.97;;
1829;SDS011;914;48.118;11.600;2023-04-25T12:39:06;1.13;;;1.00;;
1829;SDS011;914;48.118;11.600;2023-04-25T12:41:33;2.53;;;1.20;;
1829;SDS011;914;48.118;11.600;2023-04-25T12:43:59;1.23;;;1.13;;
1829;SDS011;914;48.118;11.600;2023-04-25T12:46:25;2.50;;;1.10;;
1829;SDS011;914;48.118;11.600;2023-04-25T12:48:51;1.93;;;1.30;;
1829;SDS011;914;48.118;11.600;2023-04-25T12:51:16;3.67;;;1.10;;
1829;SDS011;914;48.118;11.600;2023-04-25T12:53:42;1.47;;;1.07;;
1829;SDS011;914;48.118;11.600;2023-04-25T12:56:08;1.07;;;1.00;;
1829;SDS011;914;48.118;11.600;2023-04-25T12:58:33;1.77;;;1.20;;
1829;SDS011;914;48.118;11.600;2023-04-25T13:00:59;2.07;;;1.10;;
1829;SDS011;914;48.118;11.600;2023-04-25T13:03:25;1.77;;;1.13;;
1829;SDS011;914;48.118;11.600;2023-04-25T13:05:51;1.50;;;1.20;;
1829;SDS011;914;48.118;11.600;2023-04-25T13:08:18;1.00;;;1.00;;
1829;SDS011;914;48.118;11.600;2023-04-25T13:10:44;1.20;;;1.10;;
1829;SDS011;914;48.118;11.600;2023-04-25T13:13:09;1.73;;;0.97;;
1829;SDS011;914;48.118;11.600;2023-04-25T13:15:35;1.00;;;1.00;;
1829;SDS011;914;48.118;11.600;2023-04-25T13:18:02;0.80;;;0.80;;
1829;SDS011;914;48.118;11.600;2023-04-25T13:20:29;0.90;;;0.90;;
1829;SDS011;914;48.118;11.600;2023-04-25T13:22:55;1.17;;;1.00;;
1829;SDS011;914;48.118;11.600;2023-04-25T13:25:20;0.90;;;0.90;;
1829;SDS011;914;48.118;11.600;2023-04-25T13:27:46;1.13;;;1.00;;
1829;SDS011;914;48.118;11.600;2023-04-25T13:30:12;0.83;;;0.83;;
1829;SDS011;914;48.118;11.600;2023-04-25T13:32:38;2.90;;;1.10;;
1829;SDS011;914;48.118;11.600;2023-04-25T13:35:05;1.00;;;1.00;;
1829;SDS011;914;48.118;11.600;2023-04-25T13:37:33;1.20;;;1.10;;
1829;SDS011;914;48.118;11.600;2023-04-25T13:40:00;2.97;;;1.20;;
1829;SDS011;914;48.118;11.600;2023-04-25T13:42:29;2.10;;;0.90;;
1829;SDS011;914;48.118;11.600;2023-04-25T13:44:58;1.10;;;1.10;;
1829;SDS011;914;48.118;11.600;2023-04-25T13:47:26;1.13;;;1.10;;
1829;SDS011;914;48.118;11.600;2023-04-25T13:49:52;1.13;;;1.13;;
1829;SDS011;914;48.118;11.600;2023-04-25T13:52:18;3.63;;;1.20;;
1829;SDS011;914;48.118;11.600;2023-04-25T13:54:44;1.30;;;1.20;;
1829;SDS011;914;48.118;11.600;2023-04-25T13:57:10;4.70;;;1.20;;
1829;SDS011;914;48.118;11.600;2023-04-25T13:59:36;1.20;;;1.10;;
1829;SDS011;914;48.118;11.600;2023-04-25T14:02:02;1.10;;;1.03;;
1829;SDS011;914;48.118;11.600;2023-04-25T14:04:28;1.97;;;1.10;;
1829;SDS011;914;48.118;11.600;2023-04-25T14:06:55;1.73;;;1.10;;
1829;SDS011;914;48.118;11.600;2023-04-25T14:09:21;1.27;;;1.20;;
1829;SDS011;914;48.118;11.600;2023-04-25T14:11:53;1.10;;;1.10;;
1829;SDS011;914;48.118;11.600;2023-04-25T14:14:20;1.10;;;1.10;;
1829;SDS011;914;48.118;11.600;2023-04-25T14:16:47;0.80;;;0.80;;
1829;SDS011;914;48.118;11.600;2023-04-25T14:19:14;1.37;;;1.00;;
1829;SDS011;914;48.118;11.600;2023-04-25T14:21:40;1.00;;;1.00;;
1829;SDS011;914;48.118;11.600;2023-04-25T14:24:06;2.13;;;1.27;;
1829;SDS011;914;48.118;11.600;2023-04-25T14:26:33;1.00;;;1.00;;
1829;SDS011;914;48.118;11.600;2023-04-25T14:29:03;0.70;;;0.70;;
1829;SDS011;914;48.118;11.600;2023-04-25T14:31:33;0.80;;;0.80;;
1829;SDS011;914;48.118;11.600;2023-04-25T14:33:59;0.83;;;0.83;;
1829;SDS011;914;48.118;11.600;2023-04-25T14:36:24;1.10;;;0.97;;
1829;SDS011;914;48.118;11.600;2023-04-25T14:38:51;1.97;;;1.20;;
1829;SDS011;914;48.118;11.600;2023-04-25T14:41:17;1.20;;;1.10;;
1829;SDS011;914;48.118;11.600;2023-04-25T14:43:43;0.87;;;0.87;;
1829;SDS011;914;48.118;11.600;2023-04-25T14:46:10;1.47;;;1.00;;
1829;SDS011;914;48.118;11.600;2023-04-25T14:48:36;1.10;;;1.00;;
1829;SDS011;914;48.118;11.600;2023-04-25T14:51:01;1.13;;;1.03;;
1829;SDS011;914;48.118;11.600;2023-04-25T14:53:27;1.50;;;1.40;;
1829;SDS011;914;48.118;11.600;2023-04-25T14:55:54;1.03;;;1.03;;
1829;SDS011;914;48.118;11.600;2023-04-25T14:58:20;1.30;;;1.20;;
1829;SDS011;914;48.118;11.600;2023-04-25T15:00:46;1.20;;;1.10;;
1829;SDS011;914;48.118;11.600;2023-04-25T15:03:12;1.23;;;1.13;;
1829;SDS011;914;48.118;11.600;2023-04-25T15:05:41;1.77;;;1.67;;
1829;SDS011;914;48.118;11.600;2023-04-25T15:08:08;1.43;;;1.00;;
1829;SDS011;914;48.118;11.600;2023-04-25T15:10:34;1.20;;;1.10;;
1829;SDS011;914;48.118;11.600;2023-04-25T15:13:00;0.80;;;0.80;;
1829;SDS011;914;48.118;11.600;2023-04-25T15:15:26;0.70;;;0.70;;
1829;SDS011;914;48.118;11.600;2023-04-25T15:17:52;1.17;;;0.90;;
1829;SDS011;914;48.118;11.600;2023-04-25T15:20:22;0.70;;;0.70;;
1829;SDS011;914;48.118;11.600;2023-04-25T15:22:48;2.23;;;0.60;;
1829;SDS011;914;48.118;11.600;2023-04-25T15:25:16;0.73;;;0.70;;
1829;SDS011;914;48.118;11.600;2023-04-25T15:27:45;1.70;;;0.70;;